sensor_id;sensor_type;location;lat;lon;timestamp;temperature;humidity
17208;DHT22;8720;48.488;9.202;2024-03-08T00:01:51;6.20;59.60
17208;DHT22;8720;48.488;9.202;2024-03-08T00:04:18;6.20;59.60
17208;DHT22;8720;48.488;9.202;2024-03-08T00:06:46;6.10;59.40
17208;DHT22;8720;48.488;9.202;2024-03-08T00:09:13;6.10;59.70
17208;DHT22;8720;48.488;9.202;2024-03-08T00:11:41;6.10;59.80
17208;DHT22;8720;48.488;9.202;2024-03-08T00:14:10;6.10;59.80
17208;DHT22;8720;48.488;9.202;2024-03-08T00:16:37;6.10;59.40
17208;DHT22;8720;48.488;9.202;2024-03-08T00:19:09;6.10;59.80
17208;DHT22;8720;48.488;9.202;2024-03-08T00:21:36;6.10;59.80
17208;DHT22;8720;48.488;9.202;2024-03-08T00:24:04;6.00;59.70
17208;DHT22;8720;48.488;9.202;2024-03-08T00:26:32;6.00;59.60
17208;DHT22;8720;48.488;9.202;2024-03-08T00:28:59;6.00;59.60
17208;DHT22;8720;48.488;9.202;2024-03-08T00:31:28;6.00;59.70
17208;DHT22;8720;48.488;9.202;2024-03-08T00:33:57;6.00;59.40
17208;DHT22;8720;48.488;9.202;2024-03-08T00:36:25;6.00;59.70
17208;DHT22;8720;48.488;9.202;2024-03-08T00:38:52;5.90;59.70
17208;DHT22;8720;48.488;9.202;2024-03-08T00:41:20;5.90;59.60
17208;DHT22;8720;48.488;9.202;2024-03-08T00:43:47;5.90;59.60
17208;DHT22;8720;48.488;9.202;2024-03-08T00:46:16;5.90;59.70
17208;DHT22;8720;48.488;9.202;2024-03-08T00:48:45;5.90;59.80
17208;DHT22;8720;48.488;9.202;2024-03-08T00:51:13;5.80;59.40
17208;DHT22;8720;48.488;9.202;2024-03-08T00:53:41;5.80;59.70
17208;DHT22;8720;48.488;9.202;2024-03-08T00:56:08;5.80;59.80
17208;DHT22;8720;48.488;9.202;2024-03-08T00:58:36;5.80;59.70
17208;DHT22;8720;48.488;9.202;2024-03-08T01:01:04;5.80;59.90
17208;DHT22;8720;48.488;9.202;2024-03-08T01:03:32;5.70;59.90
17208;DHT22;8720;48.488;9.202;2024-03-08T01:06:01;5.70;59.70
17208;DHT22;8720;48.488;9.202;2024-03-08T01:08:30;5.70;59.60
17208;DHT22;8720;48.488;9.202;2024-03-08T01:10:57;5.70;60.00
17208;DHT22;8720;48.488;9.202;2024-03-08T01:13:24;5.70;59.90
17208;DHT22;8720;48.488;9.202;2024-03-08T01:15:52;5.70;60.00
17208;DHT22;8720;48.488;9.202;2024-03-08T01:18:20;5.70;59.80
17208;DHT22;8720;48.488;9.202;2024-03-08T01:20:47;5.70;59.90
17208;DHT22;8720;48.488;9.202;2024-03-08T01:23:16;5.60;59.80
17208;DHT22;8720;48.488;9.202;2024-03-08T01:25:43;5.60;59.50
17208;DHT22;8720;48.488;9.202;2024-03-08T01:28:10;5.60;59.70
17208;DHT22;8720;48.488;9.202;2024-03-08T01:30:38;5.60;59.60
17208;DHT22;8720;48.488;9.202;2024-03-08T01:33:06;5.60;59.50
17208;DHT22;8720;48.488;9.202;2024-03-08T01:35:33;5.60;59.50
17208;DHT22;8720;48.488;9.202;2024-03-08T01:38:00;5.50;59.50
17208;DHT22;8720;48.488;9.202;2024-03-08T01:40:32;5.50;59.60
17208;DHT22;8720;48.488;9.202;2024-03-08T01:43:17;5.50;59.20
17208;DHT22;8720;48.488;9.202;2024-03-08T01:45:46;5.50;58.10
17208;DHT22;8720;48.488;9.202;2024-03-08T01:48:14;5.40;59.30
17208;DHT22;8720;48.488;9.202;2024-03-08T01:50:42;5.40;59.10
17208;DHT22;8720;48.488;9.202;2024-03-08T01:53:10;5.40;59.20
17208;DHT22;8720;48.488;9.202;2024-03-08T01:55:40;5.40;59.10
17208;DHT22;8720;48.488;9.202;2024-03-08T01:58:09;5.40;58.90
17208;DHT22;8720;48.488;9.202;2024-03-08T02:00:39;5.30;59.00
17208;DHT22;8720;48.488;9.202;2024-03-08T02:03:08;5.30;59.20
17208;DHT22;8720;48.488;9.202;2024-03-08T02:05:36;5.30;59.40
17208;DHT22;8720;48.488;9.202;2024-03-08T02:08:05;5.30;59.30
17208;DHT22;8720;48.488;9.202;2024-03-08T02:10:34;5.30;59.30
17208;DHT22;8720;48.488;9.202;2024-03-08T02:13:03;5.20;59.30
17208;DHT22;8720;48.488;9.202;2024-03-08T02:15:52;5.20;59.10
17208;DHT22;8720;48.488;9.202;2024-03-08T02:18:20;5.20;58.10
17208;DHT22;8720;48.488;9.202;2024-03-08T02:20:50;5.20;59.50
17208;DHT22;8720;48.488;9.202;2024-03-08T02:23:18;5.10;59.10
17208;DHT22;8720;48.488;9.202;2024-03-08T02:25:45;5.10;60.10
17208;DHT22;8720;48.488;9.202;2024-03-08T02:28:13;5.10;59.80
17208;DHT22;8720;48.488;9.202;2024-03-08T02:30:41;5.10;59.80
17208;DHT22;8720;48.488;9.202;2024-03-08T02:33:08;5.10;60.00
17208;DHT22;8720;48.488;9.202;2024-03-08T02:35:36;5.10;60.70
17208;DHT22;8720;48.488;9.202;2024-03-08T02:38:05;5.00;59.90
17208;DHT22;8720;48.488;9.202;2024-03-08T02:40:32;5.00;59.70
17208;DHT22;8720;48.488;9.202;2024-03-08T02:43:00;5.00;60.00
17208;DHT22;8720;48.488;9.202;2024-03-08T02:45:27;5.00;60.00
17208;DHT22;8720;48.488;9.202;2024-03-08T02:47:55;5.00;60.00
17208;DHT22;8720;48.488;9.202;2024-03-08T02:50:22;4.90;60.10
17208;DHT22;8720;48.488;9.202;2024-03-08T02:52:51;4.90;60.10
17208;DHT22;8720;48.488;9.202;2024-03-08T02:55:20;4.90;60.10
17208;DHT22;8720;48.488;9.202;2024-03-08T02:57:47;4.90;59.90
17208;DHT22;8720;48.488;9.202;2024-03-08T03:05:39;4.80;60.20
17208;DHT22;8720;48.488;9.202;2024-03-08T03:08:07;4.80;60.20
17208;DHT22;8720;48.488;9.202;2024-03-08T03:10:36;4.80;60.20
17208;DHT22;8720;48.488;9.202;2024-03-08T03:13:04;4.70;60.00
17208;DHT22;8720;48.488;9.202;2024-03-08T03:15:32;4.70;60.20
17208;DHT22;8720;48.488;9.202;2024-03-08T03:18:00;4.70;60.20
17208;DHT22;8720;48.488;9.202;2024-03-08T03:20:28;4.70;60.30
17208;DHT22;8720;48.488;9.202;2024-03-08T03:22:58;4.70;60.30
17208;DHT22;8720;48.488;9.202;2024-03-08T03:25:28;4.70;60.30
17208;DHT22;8720;48.488;9.202;2024-03-08T03:28:01;4.70;60.30
17208;DHT22;8720;48.488;9.202;2024-03-08T03:30:28;4.60;60.00
17208;DHT22;8720;48.488;9.202;2024-03-08T03:32:59;4.60;60.30
17208;DHT22;8720;48.488;9.202;2024-03-08T03:35:27;4.60;60.30
17208;DHT22;8720;48.488;9.202;2024-03-08T03:37:56;4.60;60.50
17208;DHT22;8720;48.488;9.202;2024-03-08T03:40:32;4.50;60.60
17208;DHT22;8720;48.488;9.202;2024-03-08T03:43:02;4.50;60.50
17208;DHT22;8720;48.488;9.202;2024-03-08T03:45:30;4.50;60.90
17208;DHT22;8720;48.488;9.202;2024-03-08T03:48:02;4.50;60.60
17208;DHT22;8720;48.488;9.202;2024-03-08T03:50:29;4.50;60.60
17208;DHT22;8720;48.488;9.202;2024-03-08T03:53:00;4.50;60.70
17208;DHT22;8720;48.488;9.202;2024-03-08T03:55:27;4.50;61.30
17208;DHT22;8720;48.488;9.202;2024-03-08T03:57:55;4.40;60.70
17208;DHT22;8720;48.488;9.202;2024-03-08T04:00:26;4.40;60.70
17208;DHT22;8720;48.488;9.202;2024-03-08T04:02:54;4.40;60.50
17208;DHT22;8720;48.488;9.202;2024-03-08T04:05:25;4.40;60.70
17208;DHT22;8720;48.488;9.202;2024-03-08T04:07:52;4.30;60.60
17208;DHT22;8720;48.488;9.202;2024-03-08T04:10:19;4.30;60.80
17208;DHT22;8720;48.488;9.202;2024-03-08T04:12:47;4.30;60.90
17208;DHT22;8720;48.488;9.202;2024-03-08T04:15:14;4.30;61.10
17208;DHT22;8720;48.488;9.202;2024-03-08T04:17:43;4.30;61.20
17208;DHT22;8720;48.488;9.202;2024-03-08T04:20:11;4.30;61.20
17208;DHT22;8720;48.488;9.202;2024-03-08T04:22:40;4.30;61.60
17208;DHT22;8720;48.488;9.202;2024-03-08T04:25:08;4.30;61.70
17208;DHT22;8720;48.488;9.202;2024-03-08T04:27:36;4.30;61.70
17208;DHT22;8720;48.488;9.202;2024-03-08T04:30:04;4.30;61.70
17208;DHT22;8720;48.488;9.202;2024-03-08T04:32:33;4.30;61.70
17208;DHT22;8720;48.488;9.202;2024-03-08T04:35:01;4.30;61.90
17208;DHT22;8720;48.488;9.202;2024-03-08T04:37:29;4.30;61.60
17208;DHT22;8720;48.488;9.202;2024-03-08T04:39:56;4.30;61.90
17208;DHT22;8720;48.488;9.202;2024-03-08T04:42:24;4.30;62.00
17208;DHT22;8720;48.488;9.202;2024-03-08T04:44:52;4.30;62.10
17208;DHT22;8720;48.488;9.202;2024-03-08T04:47:20;4.30;62.30
17208;DHT22;8720;48.488;9.202;2024-03-08T04:49:47;4.30;62.40
17208;DHT22;8720;48.488;9.202;2024-03-08T04:52:17;4.40;62.60
17208;DHT22;8720;48.488;9.202;2024-03-08T04:54:44;4.40;62.60
17208;DHT22;8720;48.488;9.202;2024-03-08T04:57:12;4.40;62.90
17208;DHT22;8720;48.488;9.202;2024-03-08T04:59:39;4.40;63.00
17208;DHT22;8720;48.488;9.202;2024-03-08T05:02:06;4.50;63.20
17208;DHT22;8720;48.488;9.202;2024-03-08T05:04:34;4.50;63.30
17208;DHT22;8720;48.488;9.202;2024-03-08T05:07:01;4.60;63.40
17208;DHT22;8720;48.488;9.202;2024-03-08T05:09:31;4.60;63.30
17208;DHT22;8720;48.488;9.202;2024-03-08T05:11:58;4.60;63.10
17208;DHT22;8720;48.488;9.202;2024-03-08T05:14:27;4.70;63.50
17208;DHT22;8720;48.488;9.202;2024-03-08T05:16:56;4.70;63.40
17208;DHT22;8720;48.488;9.202;2024-03-08T05:19:23;4.70;63.40
17208;DHT22;8720;48.488;9.202;2024-03-08T05:21:50;4.80;63.40
17208;DHT22;8720;48.488;9.202;2024-03-08T05:24:18;4.80;63.50
17208;DHT22;8720;48.488;9.202;2024-03-08T05:26:47;4.90;63.40
17208;DHT22;8720;48.488;9.202;2024-03-08T05:29:15;4.90;63.20
17208;DHT22;8720;48.488;9.202;2024-03-08T05:31:47;4.90;63.40
17208;DHT22;8720;48.488;9.202;2024-03-08T05:34:16;5.00;63.00
17208;DHT22;8720;48.488;9.202;2024-03-08T05:36:45;5.00;63.40
17208;DHT22;8720;48.488;9.202;2024-03-08T05:39:13;5.10;63.40
17208;DHT22;8720;48.488;9.202;2024-03-08T05:41:40;5.10;63.40
17208;DHT22;8720;48.488;9.202;2024-03-08T05:44:10;5.10;63.40
17208;DHT22;8720;48.488;9.202;2024-03-08T05:46:37;5.10;63.00
17208;DHT22;8720;48.488;9.202;2024-03-08T05:49:05;5.20;63.20
17208;DHT22;8720;48.488;9.202;2024-03-08T05:51:37;5.20;63.00
17208;DHT22;8720;48.488;9.202;2024-03-08T05:54:06;5.20;62.70
17208;DHT22;8720;48.488;9.202;2024-03-08T05:56:36;5.20;62.80
17208;DHT22;8720;48.488;9.202;2024-03-08T05:59:04;5.20;62.80
17208;DHT22;8720;48.488;9.202;2024-03-08T06:01:32;5.20;64.30
17208;DHT22;8720;48.488;9.202;2024-03-08T06:04:03;5.20;63.00
17208;DHT22;8720;48.488;9.202;2024-03-08T06:06:30;5.30;64.20
17208;DHT22;8720;48.488;9.202;2024-03-08T06:08:58;5.30;63.20
17208;DHT22;8720;48.488;9.202;2024-03-08T06:11:26;5.40;63.00
17208;DHT22;8720;48.488;9.202;2024-03-08T06:13:54;5.40;62.60
17208;DHT22;8720;48.488;9.202;2024-03-08T06:16:25;5.50;62.80
17208;DHT22;8720;48.488;9.202;2024-03-08T06:18:56;5.60;62.50
17208;DHT22;8720;48.488;9.202;2024-03-08T06:21:24;5.60;61.90
17208;DHT22;8720;48.488;9.202;2024-03-08T06:23:52;5.60;62.10
17208;DHT22;8720;48.488;9.202;2024-03-08T06:26:21;5.70;62.10
17208;DHT22;8720;48.488;9.202;2024-03-08T06:28:48;5.70;61.90
17208;DHT22;8720;48.488;9.202;2024-03-08T06:31:16;5.70;62.00
17208;DHT22;8720;48.488;9.202;2024-03-08T06:33:43;5.70;61.90
17208;DHT22;8720;48.488;9.202;2024-03-08T06:36:12;5.70;61.80
17208;DHT22;8720;48.488;9.202;2024-03-08T06:38:40;5.70;61.40
17208;DHT22;8720;48.488;9.202;2024-03-08T06:41:08;5.70;61.40
17208;DHT22;8720;48.488;9.202;2024-03-08T06:43:41;5.70;61.30
17208;DHT22;8720;48.488;9.202;2024-03-08T06:46:09;5.70;61.30
17208;DHT22;8720;48.488;9.202;2024-03-08T06:48:38;5.70;61.50
17208;DHT22;8720;48.488;9.202;2024-03-08T06:51:06;5.70;61.20
17208;DHT22;8720;48.488;9.202;2024-03-08T06:53:34;5.70;61.30
17208;DHT22;8720;48.488;9.202;2024-03-08T06:56:02;5.70;60.80
17208;DHT22;8720;48.488;9.202;2024-03-08T06:58:30;5.70;61.20
17208;DHT22;8720;48.488;9.202;2024-03-08T07:00:58;5.80;61.30
17208;DHT22;8720;48.488;9.202;2024-03-08T07:03:26;5.80;61.40
17208;DHT22;8720;48.488;9.202;2024-03-08T07:05:55;5.80;61.30
17208;DHT22;8720;48.488;9.202;2024-03-08T07:08:23;5.80;61.10
17208;DHT22;8720;48.488;9.202;2024-03-08T07:10:54;5.80;61.40
17208;DHT22;8720;48.488;9.202;2024-03-08T07:13:21;5.80;60.90
17208;DHT22;8720;48.488;9.202;2024-03-08T07:15:48;5.80;61.40
17208;DHT22;8720;48.488;9.202;2024-03-08T07:18:17;5.90;61.70
17208;DHT22;8720;48.488;9.202;2024-03-08T07:20:45;5.90;61.40
17208;DHT22;8720;48.488;9.202;2024-03-08T07:23:12;5.90;61.20
17208;DHT22;8720;48.488;9.202;2024-03-08T07:26:01;5.90;61.00
17208;DHT22;8720;48.488;9.202;2024-03-08T07:28:28;6.00;60.60
17208;DHT22;8720;48.488;9.202;2024-03-08T07:30:57;6.00;61.00
17208;DHT22;8720;48.488;9.202;2024-03-08T07:33:38;6.00;61.00
17208;DHT22;8720;48.488;9.202;2024-03-08T07:36:05;6.00;61.00
17208;DHT22;8720;48.488;9.202;2024-03-08T07:38:34;6.00;61.00
17208;DHT22;8720;48.488;9.202;2024-03-08T07:41:03;6.10;60.80
17208;DHT22;8720;48.488;9.202;2024-03-08T07:43:30;6.10;60.50
17208;DHT22;8720;48.488;9.202;2024-03-08T07:45:58;6.10;61.60
17208;DHT22;8720;48.488;9.202;2024-03-08T07:48:25;6.10;60.70
17208;DHT22;8720;48.488;9.202;2024-03-08T07:50:53;6.20;60.80
17208;DHT22;8720;48.488;9.202;2024-03-08T07:53:20;6.20;60.80
17208;DHT22;8720;48.488;9.202;2024-03-08T07:55:47;6.20;60.80
17208;DHT22;8720;48.488;9.202;2024-03-08T07:58:16;6.20;60.90
17208;DHT22;8720;48.488;9.202;2024-03-08T08:00:43;6.20;60.30
17208;DHT22;8720;48.488;9.202;2024-03-08T08:03:10;6.30;60.70
17208;DHT22;8720;48.488;9.202;2024-03-08T08:05:38;6.30;60.90
17208;DHT22;8720;48.488;9.202;2024-03-08T08:08:07;6.40;61.10
17208;DHT22;8720;48.488;9.202;2024-03-08T08:10:36;6.40;60.40
17208;DHT22;8720;48.488;9.202;2024-03-08T08:13:03;6.40;60.60
17208;DHT22;8720;48.488;9.202;2024-03-08T08:15:32;6.50;60.60
17208;DHT22;8720;48.488;9.202;2024-03-08T08:18:00;6.50;60.00
17208;DHT22;8720;48.488;9.202;2024-03-08T08:20:28;6.60;60.70
17208;DHT22;8720;48.488;9.202;2024-03-08T08:22:55;6.60;60.90
17208;DHT22;8720;48.488;9.202;2024-03-08T08:25:24;6.60;60.80
17208;DHT22;8720;48.488;9.202;2024-03-08T08:27:52;6.70;60.50
17208;DHT22;8720;48.488;9.202;2024-03-08T08:30:19;6.70;60.40
17208;DHT22;8720;48.488;9.202;2024-03-08T08:32:48;6.80;60.60
17208;DHT22;8720;48.488;9.202;2024-03-08T08:35:16;6.80;59.90
17208;DHT22;8720;48.488;9.202;2024-03-08T08:37:45;6.80;59.80
17208;DHT22;8720;48.488;9.202;2024-03-08T08:40:13;6.80;59.80
17208;DHT22;8720;48.488;9.202;2024-03-08T08:42:43;6.90;60.00
17208;DHT22;8720;48.488;9.202;2024-03-08T08:45:12;6.90;60.00
17208;DHT22;8720;48.488;9.202;2024-03-08T08:47:42;6.90;59.50
17208;DHT22;8720;48.488;9.202;2024-03-08T08:50:12;6.90;59.80
17208;DHT22;8720;48.488;9.202;2024-03-08T08:52:39;7.00;59.40
17208;DHT22;8720;48.488;9.202;2024-03-08T08:55:09;7.00;60.00
17208;DHT22;8720;48.488;9.202;2024-03-08T08:57:40;7.00;59.90
17208;DHT22;8720;48.488;9.202;2024-03-08T09:00:08;7.10;60.20
17208;DHT22;8720;48.488;9.202;2024-03-08T09:02:40;7.10;60.00
17208;DHT22;8720;48.488;9.202;2024-03-08T09:05:08;7.20;59.60
17208;DHT22;8720;48.488;9.202;2024-03-08T09:07:38;7.20;59.80
17208;DHT22;8720;48.488;9.202;2024-03-08T09:10:09;7.30;59.40
17208;DHT22;8720;48.488;9.202;2024-03-08T09:12:38;7.30;59.20
17208;DHT22;8720;48.488;9.202;2024-03-08T09:15:07;7.40;60.20
17208;DHT22;8720;48.488;9.202;2024-03-08T09:17:37;7.50;60.00
17208;DHT22;8720;48.488;9.202;2024-03-08T09:20:06;7.60;60.40
17208;DHT22;8720;48.488;9.202;2024-03-08T09:22:35;7.70;60.00
17208;DHT22;8720;48.488;9.202;2024-03-08T09:25:04;7.70;60.40
17208;DHT22;8720;48.488;9.202;2024-03-08T09:27:33;7.80;59.40
17208;DHT22;8720;48.488;9.202;2024-03-08T09:30:00;7.90;60.10
17208;DHT22;8720;48.488;9.202;2024-03-08T09:32:28;8.00;59.60
17208;DHT22;8720;48.488;9.202;2024-03-08T09:34:55;8.10;59.40
17208;DHT22;8720;48.488;9.202;2024-03-08T09:37:23;8.10;59.00
17208;DHT22;8720;48.488;9.202;2024-03-08T09:39:50;8.20;58.70
17208;DHT22;8720;48.488;9.202;2024-03-08T09:42:19;8.20;58.90
17208;DHT22;8720;48.488;9.202;2024-03-08T09:44:47;8.30;58.10
17208;DHT22;8720;48.488;9.202;2024-03-08T09:47:15;8.30;58.50
17208;DHT22;8720;48.488;9.202;2024-03-08T09:49:42;8.30;58.90
17208;DHT22;8720;48.488;9.202;2024-03-08T09:52:10;8.40;59.60
17208;DHT22;8720;48.488;9.202;2024-03-08T09:54:38;8.50;58.70
17208;DHT22;8720;48.488;9.202;2024-03-08T09:57:10;8.50;58.50
17208;DHT22;8720;48.488;9.202;2024-03-08T09:59:40;8.60;58.70
17208;DHT22;8720;48.488;9.202;2024-03-08T10:02:15;8.60;58.30
17208;DHT22;8720;48.488;9.202;2024-03-08T10:04:43;8.70;58.30
17208;DHT22;8720;48.488;9.202;2024-03-08T10:07:13;8.80;58.20
17208;DHT22;8720;48.488;9.202;2024-03-08T10:09:41;8.80;58.50
17208;DHT22;8720;48.488;9.202;2024-03-08T10:12:13;8.90;58.60
17208;DHT22;8720;48.488;9.202;2024-03-08T10:14:43;8.90;58.10
17208;DHT22;8720;48.488;9.202;2024-03-08T10:17:12;9.00;57.80
17208;DHT22;8720;48.488;9.202;2024-03-08T10:19:49;9.10;58.30
17208;DHT22;8720;48.488;9.202;2024-03-08T10:22:19;9.10;56.30
17208;DHT22;8720;48.488;9.202;2024-03-08T10:24:48;9.10;57.90
17208;DHT22;8720;48.488;9.202;2024-03-08T10:27:17;9.20;58.00
17208;DHT22;8720;48.488;9.202;2024-03-08T10:29:48;9.20;57.70
17208;DHT22;8720;48.488;9.202;2024-03-08T10:32:17;9.20;56.80
17208;DHT22;8720;48.488;9.202;2024-03-08T10:34:45;9.30;58.00
17208;DHT22;8720;48.488;9.202;2024-03-08T10:37:15;9.30;57.50
17208;DHT22;8720;48.488;9.202;2024-03-08T10:39:58;9.30;57.00
17208;DHT22;8720;48.488;9.202;2024-03-08T10:42:40;9.40;55.90
17208;DHT22;8720;48.488;9.202;2024-03-08T10:45:23;9.40;56.50
17208;DHT22;8720;48.488;9.202;2024-03-08T10:48:09;9.40;56.20
17208;DHT22;8720;48.488;9.202;2024-03-08T10:50:57;9.50;56.20
17208;DHT22;8720;48.488;9.202;2024-03-08T10:53:27;9.60;57.50
17208;DHT22;8720;48.488;9.202;2024-03-08T10:55:56;9.60;56.80
17208;DHT22;8720;48.488;9.202;2024-03-08T10:58:26;9.70;57.30
17208;DHT22;8720;48.488;9.202;2024-03-08T11:00:56;9.70;56.40
17208;DHT22;8720;48.488;9.202;2024-03-08T11:03:44;9.70;56.30
17208;DHT22;8720;48.488;9.202;2024-03-08T11:06:16;9.70;54.10
17208;DHT22;8720;48.488;9.202;2024-03-08T11:08:48;9.70;56.30
17208;DHT22;8720;48.488;9.202;2024-03-08T11:11:27;9.70;56.90
17208;DHT22;8720;48.488;9.202;2024-03-08T11:13:57;9.70;55.40
17208;DHT22;8720;48.488;9.202;2024-03-08T11:16:44;9.70;57.20
17208;DHT22;8720;48.488;9.202;2024-03-08T11:19:26;9.80;54.60
17208;DHT22;8720;48.488;9.202;2024-03-08T11:21:58;9.80;54.80
17208;DHT22;8720;48.488;9.202;2024-03-08T11:24:26;9.80;56.80
17208;DHT22;8720;48.488;9.202;2024-03-08T11:26:57;9.90;56.60
17208;DHT22;8720;48.488;9.202;2024-03-08T11:29:33;9.90;55.70
17208;DHT22;8720;48.488;9.202;2024-03-08T11:32:08;9.90;55.40
17208;DHT22;8720;48.488;9.202;2024-03-08T11:34:36;9.90;55.40
17208;DHT22;8720;48.488;9.202;2024-03-08T11:37:05;9.90;56.80
17208;DHT22;8720;48.488;9.202;2024-03-08T11:39:39;9.90;56.60
17208;DHT22;8720;48.488;9.202;2024-03-08T11:42:07;9.80;56.10
17208;DHT22;8720;48.488;9.202;2024-03-08T11:44:37;9.80;56.50
17208;DHT22;8720;48.488;9.202;2024-03-08T11:47:11;9.80;56.80
17208;DHT22;8720;48.488;9.202;2024-03-08T11:49:38;9.80;56.40
17208;DHT22;8720;48.488;9.202;2024-03-08T11:52:11;9.80;57.10
17208;DHT22;8720;48.488;9.202;2024-03-08T11:54:39;9.80;56.60
17208;DHT22;8720;48.488;9.202;2024-03-08T11:57:07;9.80;57.00
17208;DHT22;8720;48.488;9.202;2024-03-08T11:59:35;9.80;57.20
17208;DHT22;8720;48.488;9.202;2024-03-08T12:02:04;9.80;57.20
17208;DHT22;8720;48.488;9.202;2024-03-08T12:04:33;9.90;57.10
17208;DHT22;8720;48.488;9.202;2024-03-08T12:07:02;9.90;57.00
17208;DHT22;8720;48.488;9.202;2024-03-08T12:09:35;10.00;56.50
17208;DHT22;8720;48.488;9.202;2024-03-08T12:12:03;10.00;56.70
17208;DHT22;8720;48.488;9.202;2024-03-08T12:14:33;10.10;56.70
17208;DHT22;8720;48.488;9.202;2024-03-08T12:17:04;10.20;56.80
17208;DHT22;8720;48.488;9.202;2024-03-08T12:19:33;10.20;56.20
17208;DHT22;8720;48.488;9.202;2024-03-08T12:22:07;10.30;56.20
17208;DHT22;8720;48.488;9.202;2024-03-08T12:24:36;10.30;54.50
17208;DHT22;8720;48.488;9.202;2024-03-08T12:27:18;10.40;56.20
17208;DHT22;8720;48.488;9.202;2024-03-08T12:29:46;10.40;53.80
17208;DHT22;8720;48.488;9.202;2024-03-08T12:32:13;10.40;56.20
17208;DHT22;8720;48.488;9.202;2024-03-08T12:34:43;10.50;56.30
17208;DHT22;8720;48.488;9.202;2024-03-08T12:37:19;10.50;55.90
17208;DHT22;8720;48.488;9.202;2024-03-08T12:39:46;10.50;56.20
17208;DHT22;8720;48.488;9.202;2024-03-08T12:42:14;10.60;55.80
17208;DHT22;8720;48.488;9.202;2024-03-08T12:44:41;10.60;55.90
17208;DHT22;8720;48.488;9.202;2024-03-08T12:47:09;10.60;55.80
17208;DHT22;8720;48.488;9.202;2024-03-08T12:49:36;10.60;55.90
17208;DHT22;8720;48.488;9.202;2024-03-08T12:52:09;10.70;55.80
17208;DHT22;8720;48.488;9.202;2024-03-08T12:54:37;10.70;54.70
17208;DHT22;8720;48.488;9.202;2024-03-08T12:57:05;10.70;55.80
17208;DHT22;8720;48.488;9.202;2024-03-08T12:59:36;10.70;55.60
17208;DHT22;8720;48.488;9.202;2024-03-08T13:02:04;10.80;55.30
17208;DHT22;8720;48.488;9.202;2024-03-08T13:04:37;10.80;55.60
17208;DHT22;8720;48.488;9.202;2024-03-08T13:07:06;10.80;54.90
17208;DHT22;8720;48.488;9.202;2024-03-08T13:09:34;10.90;55.00
17208;DHT22;8720;48.488;9.202;2024-03-08T13:12:03;10.90;55.70
17208;DHT22;8720;48.488;9.202;2024-03-08T13:14:32;10.90;55.40
17208;DHT22;8720;48.488;9.202;2024-03-08T13:17:01;11.00;56.20
17208;DHT22;8720;48.488;9.202;2024-03-08T13:19:29;11.00;56.00
17208;DHT22;8720;48.488;9.202;2024-03-08T13:21:57;11.10;56.00
17208;DHT22;8720;48.488;9.202;2024-03-08T13:24:26;11.10;56.00
17208;DHT22;8720;48.488;9.202;2024-03-08T13:26:55;11.20;55.20
17208;DHT22;8720;48.488;9.202;2024-03-08T13:29:22;11.20;56.00
17208;DHT22;8720;48.488;9.202;2024-03-08T13:31:50;11.30;56.00
17208;DHT22;8720;48.488;9.202;2024-03-08T13:34:17;11.30;56.00
17208;DHT22;8720;48.488;9.202;2024-03-08T13:36:54;11.40;56.10
17208;DHT22;8720;48.488;9.202;2024-03-08T13:39:27;11.40;56.00
17208;DHT22;8720;48.488;9.202;2024-03-08T13:41:57;11.50;55.80
17208;DHT22;8720;48.488;9.202;2024-03-08T13:44:24;11.50;56.20
17208;DHT22;8720;48.488;9.202;2024-03-08T13:46:53;11.60;56.80
17208;DHT22;8720;48.488;9.202;2024-03-08T13:49:23;11.60;55.90
17208;DHT22;8720;48.488;9.202;2024-03-08T13:51:52;11.70;55.50
17208;DHT22;8720;48.488;9.202;2024-03-08T13:54:20;11.80;55.60
17208;DHT22;8720;48.488;9.202;2024-03-08T13:56:50;11.80;55.20
17208;DHT22;8720;48.488;9.202;2024-03-08T13:59:20;11.90;54.70
17208;DHT22;8720;48.488;9.202;2024-03-08T14:01:48;11.90;55.60
17208;DHT22;8720;48.488;9.202;2024-03-08T14:04:16;12.00;55.80
17208;DHT22;8720;48.488;9.202;2024-03-08T14:06:43;12.00;55.30
17208;DHT22;8720;48.488;9.202;2024-03-08T14:09:11;12.10;55.30
17208;DHT22;8720;48.488;9.202;2024-03-08T14:11:42;12.10;55.40
17208;DHT22;8720;48.488;9.202;2024-03-08T14:14:12;12.20;55.30
17208;DHT22;8720;48.488;9.202;2024-03-08T14:16:40;12.20;54.50
17208;DHT22;8720;48.488;9.202;2024-03-08T14:19:09;12.30;55.20
17208;DHT22;8720;48.488;9.202;2024-03-08T14:21:36;12.30;55.30
17208;DHT22;8720;48.488;9.202;2024-03-08T14:24:05;12.40;55.30
17208;DHT22;8720;48.488;9.202;2024-03-08T14:26:33;12.40;54.90
17208;DHT22;8720;48.488;9.202;2024-03-08T14:29:04;12.50;54.70
17208;DHT22;8720;48.488;9.202;2024-03-08T14:31:33;12.50;54.80
17208;DHT22;8720;48.488;9.202;2024-03-08T14:34:01;12.50;54.00
17208;DHT22;8720;48.488;9.202;2024-03-08T14:36:29;12.60;54.70
17208;DHT22;8720;48.488;9.202;2024-03-08T14:38:57;12.60;54.30
17208;DHT22;8720;48.488;9.202;2024-03-08T14:41:24;12.60;54.30
17208;DHT22;8720;48.488;9.202;2024-03-08T14:43:53;12.70;54.00
17208;DHT22;8720;48.488;9.202;2024-03-08T14:46:20;12.70;53.80
17208;DHT22;8720;48.488;9.202;2024-03-08T14:48:50;12.70;54.00
17208;DHT22;8720;48.488;9.202;2024-03-08T14:51:18;12.70;53.10
17208;DHT22;8720;48.488;9.202;2024-03-08T14:53:48;12.70;53.60
17208;DHT22;8720;48.488;9.202;2024-03-08T14:56:16;12.80;54.50
17208;DHT22;8720;48.488;9.202;2024-03-08T14:58:44;12.80;53.50
17208;DHT22;8720;48.488;9.202;2024-03-08T15:01:15;12.80;53.40
17208;DHT22;8720;48.488;9.202;2024-03-08T15:03:47;12.80;52.80
17208;DHT22;8720;48.488;9.202;2024-03-08T15:06:17;12.80;53.20
17208;DHT22;8720;48.488;9.202;2024-03-08T15:08:47;12.80;52.20
17208;DHT22;8720;48.488;9.202;2024-03-08T15:11:15;12.90;52.60
17208;DHT22;8720;48.488;9.202;2024-03-08T15:13:47;12.90;53.10
17208;DHT22;8720;48.488;9.202;2024-03-08T15:16:19;12.90;52.60
17208;DHT22;8720;48.488;9.202;2024-03-08T15:18:50;12.90;53.10
17208;DHT22;8720;48.488;9.202;2024-03-08T15:21:20;12.90;53.50
17208;DHT22;8720;48.488;9.202;2024-03-08T15:23:51;12.90;53.10
17208;DHT22;8720;48.488;9.202;2024-03-08T15:26:20;12.90;53.70
17208;DHT22;8720;48.488;9.202;2024-03-08T15:28:47;12.90;53.50
17208;DHT22;8720;48.488;9.202;2024-03-08T15:31:17;13.00;53.60
17208;DHT22;8720;48.488;9.202;2024-03-08T15:33:47;13.00;53.40
17208;DHT22;8720;48.488;9.202;2024-03-08T15:36:17;13.00;53.30
17208;DHT22;8720;48.488;9.202;2024-03-08T15:38:48;12.90;53.00
17208;DHT22;8720;48.488;9.202;2024-03-08T15:41:16;13.00;52.30
17208;DHT22;8720;48.488;9.202;2024-03-08T15:43:44;12.90;52.70
17208;DHT22;8720;48.488;9.202;2024-03-08T15:46:11;12.90;52.50
17208;DHT22;8720;48.488;9.202;2024-03-08T15:48:39;12.90;52.80
17208;DHT22;8720;48.488;9.202;2024-03-08T15:51:08;12.90;52.90
17208;DHT22;8720;48.488;9.202;2024-03-08T15:53:37;12.90;53.00
17208;DHT22;8720;48.488;9.202;2024-03-08T15:56:06;12.80;52.90
17208;DHT22;8720;48.488;9.202;2024-03-08T15:58:35;12.80;52.30
17208;DHT22;8720;48.488;9.202;2024-03-08T16:01:02;12.80;53.00
17208;DHT22;8720;48.488;9.202;2024-03-08T16:03:32;12.80;53.20
17208;DHT22;8720;48.488;9.202;2024-03-08T16:06:00;12.70;52.60
17208;DHT22;8720;48.488;9.202;2024-03-08T16:08:30;12.70;52.70
17208;DHT22;8720;48.488;9.202;2024-03-08T16:10:58;12.70;52.70
17208;DHT22;8720;48.488;9.202;2024-03-08T16:13:27;12.60;52.90
17208;DHT22;8720;48.488;9.202;2024-03-08T16:15:55;12.60;52.40